createdAt,value
2018-04-01T00:02:23.482Z,4.40
2018-04-01T00:04:50.979Z,4.40
2018-04-01T00:07:18.458Z,4.40
2018-04-01T00:09:45.905Z,4.40
2018-04-01T00:12:13.353Z,4.40
2018-04-01T00:14:40.769Z,4.40
2018-04-01T00:17:08.248Z,4.40
2018-04-01T00:19:35.701Z,4.50
2018-04-01T00:22:03.139Z,4.50
2018-04-01T00:24:30.582Z,4.50
2018-04-01T00:26:58.018Z,4.50
2018-04-01T00:29:25.513Z,4.50
2018-04-01T00:31:53.131Z,4.60
2018-04-01T00:34:20.605Z,4.60
2018-04-01T00:36:48.048Z,4.60
2018-04-01T00:39:15.460Z,4.60
2018-04-01T00:41:42.946Z,4.60
2018-04-01T00:44:10.446Z,4.60
2018-04-01T00:46:38.695Z,4.60
2018-04-01T00:49:06.151Z,4.60
2018-04-01T00:51:33.626Z,4.60
2018-04-01T00:54:01.104Z,4.60
2018-04-01T00:56:28.564Z,4.60
2018-04-01T00:58:55.996Z,4.60
2018-04-01T01:01:23.449Z,4.60
2018-04-01T01:03:50.927Z,4.70
2018-04-01T01:06:18.352Z,4.70
2018-04-01T01:08:45.812Z,4.70
2018-04-01T01:11:13.249Z,4.70
2018-04-01T01:13:40.698Z,4.70
2018-04-01T01:16:08.899Z,4.60
2018-04-01T01:18:36.321Z,4.60
2018-04-01T01:21:03.803Z,4.60
2018-04-01T01:23:31.238Z,4.50
2018-04-01T01:25:58.765Z,4.50
2018-04-01T01:28:26.200Z,4.50
2018-04-01T01:30:53.651Z,4.50
2018-04-01T01:33:21.120Z,4.50
2018-04-01T01:35:48.611Z,4.50
2018-04-01T01:38:16.151Z,4.50
2018-04-01T01:40:43.604Z,4.60
2018-04-01T01:43:11.080Z,4.60
2018-04-01T01:45:38.565Z,4.60
2018-04-01T01:48:06.134Z,4.50
2018-04-01T01:50:33.649Z,4.60
2018-04-01T01:53:01.100Z,4.60
2018-04-01T01:55:28.545Z,4.60
2018-04-01T01:57:55.812Z,4.50
2018-04-01T02:00:23.097Z,4.50
2018-04-01T02:02:50.527Z,4.50
2018-04-01T02:05:17.981Z,4.50
2018-04-01T02:07:45.491Z,4.50
2018-04-01T02:10:13.040Z,4.50
2018-04-01T02:12:40.542Z,4.50
2018-04-01T02:15:08.717Z,4.40
2018-04-01T02:17:36.190Z,4.40
2018-04-01T02:20:03.659Z,4.40
2018-04-01T02:22:31.117Z,4.30
2018-04-01T02:24:58.591Z,4.30
2018-04-01T02:27:26.016Z,4.20
2018-04-01T02:29:54.049Z,4.20
2018-04-01T02:32:21.310Z,4.20
2018-04-01T02:34:48.798Z,4.20
2018-04-01T02:37:17.165Z,4.30
2018-04-01T02:39:44.612Z,4.30
2018-04-01T02:42:12.056Z,4.30
2018-04-01T02:44:39.513Z,4.40
2018-04-01T02:47:07.014Z,4.40
2018-04-01T02:49:34.466Z,4.40
2018-04-01T02:52:01.951Z,4.40
2018-04-01T02:54:29.427Z,4.40
2018-04-01T02:56:56.873Z,4.50
2018-04-01T02:59:24.334Z,4.50
2018-04-01T03:01:52.534Z,4.60
2018-04-01T03:04:19.991Z,4.60
2018-04-01T03:06:47.439Z,4.60
2018-04-01T03:09:14.870Z,4.70
2018-04-01T03:11:42.316Z,4.90
2018-04-01T03:14:13.961Z,5.00
2018-04-01T03:16:41.440Z,5.10
2018-04-01T03:19:08.912Z,5.20
2018-04-01T03:21:36.383Z,5.30
2018-04-01T03:24:04.592Z,5.50
2018-04-01T03:26:32.079Z,5.50
2018-04-01T03:28:59.518Z,5.50
2018-04-01T03:31:27.007Z,5.50
2018-04-01T03:33:54.504Z,5.60
2018-04-01T03:36:22.710Z,5.60
2018-04-01T03:38:50.157Z,5.60
2018-04-01T03:41:17.626Z,5.60
2018-04-01T03:43:45.112Z,5.70
2018-04-01T03:46:13.537Z,5.70
2018-04-01T03:48:41.762Z,5.80
2018-04-01T03:51:09.161Z,5.80
2018-04-01T03:53:36.642Z,5.80
2018-04-01T03:56:04.874Z,5.90
2018-04-01T03:58:32.493Z,5.90
2018-04-01T04:00:59.754Z,6.00
2018-04-01T04:03:27.031Z,6.00
2018-04-01T04:05:54.311Z,6.00
2018-04-01T04:08:21.552Z,5.90
2018-04-01T04:10:49.028Z,5.90
2018-04-01T04:13:16.503Z,5.90
2018-04-01T04:15:43.921Z,5.90
2018-04-01T04:18:11.354Z,5.90
2018-04-01T04:20:38.792Z,5.80
2018-04-01T04:23:07.020Z,5.80
2018-04-01T04:25:34.487Z,5.80
2018-04-01T04:28:01.954Z,5.80
2018-04-01T04:30:29.253Z,5.80
2018-04-01T04:32:56.721Z,5.80
2018-04-01T04:35:24.194Z,5.80
2018-04-01T04:37:51.596Z,5.80
2018-04-01T04:40:19.057Z,5.80
2018-04-01T04:42:46.512Z,5.70
2018-04-01T04:45:13.972Z,5.70
2018-04-01T04:47:41.432Z,5.70
2018-04-01T04:50:08.897Z,5.70
2018-04-01T04:52:36.361Z,5.80
2018-04-01T04:55:03.794Z,5.80
2018-04-01T04:57:31.235Z,5.80
2018-04-01T04:59:58.660Z,5.80
2018-04-01T05:02:26.887Z,5.60
2018-04-01T05:04:54.299Z,5.60
2018-04-01T05:07:21.774Z,5.50
2018-04-01T05:09:49.245Z,5.40
2018-04-01T05:12:16.707Z,5.40
2018-04-01T05:14:44.157Z,5.30
2018-04-01T05:17:11.601Z,5.20
2018-04-01T05:19:39.597Z,5.00
2018-04-01T05:22:06.913Z,5.00
2018-04-01T05:24:34.335Z,5.00
2018-04-01T05:27:01.823Z,5.00
2018-04-01T05:29:29.405Z,4.90
2018-04-01T05:31:56.864Z,4.90
2018-04-01T05:34:25.081Z,4.80
2018-04-01T05:36:53.318Z,4.80
2018-04-01T05:39:20.755Z,4.80
2018-04-01T05:41:48.222Z,4.80
2018-04-01T05:44:20.039Z,4.70
2018-04-01T05:46:48.269Z,4.50
2018-04-01T05:49:15.794Z,4.50
2018-04-01T05:51:43.227Z,4.50
2018-04-01T05:54:10.691Z,4.60
2018-04-01T05:56:38.165Z,4.60
2018-04-01T05:59:05.624Z,4.70
2018-04-01T06:01:33.100Z,5.00
2018-04-01T06:04:00.611Z,5.20
2018-04-01T06:06:28.134Z,5.50
2018-04-01T06:08:55.784Z,5.80
2018-04-01T06:11:23.134Z,6.00
2018-04-01T06:13:50.598Z,6.00
2018-04-01T06:16:18.049Z,5.90
2018-04-01T06:18:45.470Z,5.90
2018-04-01T06:21:12.982Z,6.00
2018-04-01T06:23:40.406Z,6.00
2018-04-01T06:26:07.857Z,5.90
2018-04-01T06:28:35.329Z,5.90
2018-04-01T06:31:02.768Z,5.90
2018-04-01T06:33:30.252Z,5.90
2018-04-01T06:35:57.674Z,6.00
2018-04-01T06:38:25.147Z,6.30
2018-04-01T06:40:53.341Z,6.90
2018-04-01T06:43:20.815Z,6.90
2018-04-01T06:45:48.276Z,7.30
2018-04-01T06:48:16.712Z,7.40
2018-04-01T06:50:44.985Z,7.30
2018-04-01T06:53:13.171Z,7.20
2018-04-01T06:55:40.626Z,7.20
2018-04-01T06:58:08.250Z,7.20
2018-04-01T07:00:35.722Z,7.10
2018-04-01T07:03:03.183Z,7.10
2018-04-01T07:05:30.821Z,7.00
2018-04-01T07:07:58.300Z,7.00
2018-04-01T07:10:25.724Z,7.00
2018-04-01T07:12:53.193Z,7.00
2018-04-01T07:15:20.607Z,7.00
2018-04-01T07:17:48.870Z,7.10
2018-04-01T07:20:16.354Z,7.00
2018-04-01T07:22:43.895Z,7.00
2018-04-01T07:25:12.157Z,7.00
2018-04-01T07:27:39.596Z,6.90
2018-04-01T07:30:07.104Z,7.00
2018-04-01T07:32:35.298Z,7.00
2018-04-01T07:35:03.542Z,6.90
2018-04-01T07:37:31.128Z,6.90
2018-04-01T07:39:58.571Z,6.90
2018-04-01T07:42:26.053Z,6.90
2018-04-01T07:44:53.674Z,6.90
2018-04-01T07:47:21.158Z,6.90
2018-04-01T07:49:48.598Z,7.00
2018-04-01T07:52:16.068Z,7.00
2018-04-01T07:54:43.519Z,7.00
2018-04-01T07:57:11.406Z,7.00
2018-04-01T07:59:38.843Z,7.00
2018-04-01T08:02:06.273Z,6.80
2018-04-01T08:04:33.729Z,6.50
2018-04-01T08:07:01.153Z,6.30
2018-04-01T08:09:28.591Z,6.00
2018-04-01T08:11:56.034Z,5.90
2018-04-01T08:14:23.495Z,5.80
2018-04-01T08:16:50.992Z,5.70
2018-04-01T08:19:19.168Z,5.70
2018-04-01T08:21:46.645Z,5.70
2018-04-01T08:24:14.855Z,5.70
2018-04-01T08:26:42.081Z,5.70
2018-04-01T08:29:09.493Z,5.80
2018-04-01T08:31:37.006Z,5.90
2018-04-01T08:34:04.468Z,6.00
2018-04-01T08:36:33.009Z,6.10
2018-04-01T08:39:00.468Z,6.10
2018-04-01T08:41:27.883Z,6.20
2018-04-01T08:43:55.368Z,6.20
2018-04-01T08:46:22.871Z,6.30
2018-04-01T08:48:50.400Z,6.30
2018-04-01T08:51:18.282Z,6.20
2018-04-01T08:53:46.767Z,6.20
2018-04-01T08:56:14.239Z,6.20
2018-04-01T08:58:46.395Z,6.10
2018-04-01T09:01:14.810Z,6.10
2018-04-01T09:03:43.148Z,6.20
2018-04-01T09:06:10.647Z,6.20
2018-04-01T09:08:38.848Z,6.20
2018-04-01T09:11:06.291Z,6.20
2018-04-01T09:13:37.350Z,6.40
2018-04-01T09:16:04.751Z,6.40
2018-04-01T09:18:32.216Z,6.60
2018-04-01T09:20:59.728Z,6.80
2018-04-01T09:23:27.187Z,7.10
2018-04-01T09:25:54.657Z,7.30
2018-04-01T09:28:22.102Z,7.60
2018-04-01T09:30:49.721Z,7.90
2018-04-01T09:33:19.340Z,8.10
2018-04-01T09:35:46.800Z,8.20
2018-04-01T09:38:16.319Z,8.50
2018-04-01T09:40:43.779Z,8.80
2018-04-01T09:43:11.238Z,9.30
2018-04-01T09:45:39.426Z,9.70
2018-04-01T09:48:07.654Z,9.70
2018-04-01T09:50:35.067Z,9.70
2018-04-01T09:53:03.316Z,10.40
2018-04-01T09:55:30.745Z,10.40
2018-04-01T09:57:58.224Z,10.70
2018-04-01T10:00:44.527Z,10.60
2018-04-01T10:03:13.173Z,10.20
2018-04-01T10:05:47.692Z,10.40
2018-04-01T10:08:16.316Z,10.10
2018-04-01T10:10:44.963Z,10.10
2018-04-01T10:13:13.945Z,10.30
2018-04-01T10:15:42.627Z,10.60
2018-04-01T10:18:11.262Z,11.30
2018-04-01T10:20:39.916Z,11.70
2018-04-01T10:23:08.650Z,12.00
2018-04-01T10:25:37.257Z,11.50
2018-04-01T10:28:06.430Z,12.10
2018-04-01T10:30:34.897Z,12.30
2018-04-01T10:33:03.576Z,13.10
2018-04-01T10:35:32.984Z,13.10
2018-04-01T10:38:01.636Z,12.80
2018-04-01T10:40:31.362Z,13.10
2018-04-01T10:43:00.771Z,12.40
2018-04-01T10:45:29.867Z,12.40
2018-04-01T10:47:59.522Z,11.80
2018-04-01T10:50:40.687Z,11.80
2018-04-01T10:53:09.125Z,12.10
2018-04-01T10:55:36.414Z,12.00
2018-04-01T10:58:03.861Z,12.90
2018-04-01T11:00:31.299Z,13.10
2018-04-01T11:02:58.760Z,13.20
2018-04-01T11:05:26.246Z,12.70
2018-04-01T11:07:53.573Z,12.00
2018-04-01T11:10:21.028Z,11.20
2018-04-01T11:12:48.505Z,10.60
2018-04-01T11:15:16.711Z,9.80
2018-04-01T11:17:44.195Z,9.80
2018-04-01T11:20:11.666Z,9.90
2018-04-01T11:22:39.155Z,9.90
2018-04-01T11:25:07.374Z,10.60
2018-04-01T11:27:34.846Z,10.60
2018-04-01T11:30:02.318Z,11.70
2018-04-01T11:32:30.087Z,12.30
2018-04-01T11:34:59.000Z,12.00
2018-04-01T11:37:26.440Z,11.00
2018-04-01T11:39:54.048Z,9.30
2018-04-01T11:42:22.312Z,6.60
2018-04-01T11:44:49.760Z,6.60
2018-04-01T11:47:17.213Z,6.10
2018-04-01T11:49:47.411Z,6.10
2018-04-01T11:52:14.635Z,6.10
2018-04-01T11:54:42.038Z,6.20
2018-04-01T11:57:13.307Z,6.20
2018-04-01T11:59:40.814Z,6.50
2018-04-01T12:02:16.907Z,6.90
2018-04-01T12:04:44.365Z,7.30
2018-04-01T12:07:17.905Z,8.00
2018-04-01T12:09:46.149Z,8.40
2018-04-01T12:12:13.596Z,8.40
2018-04-01T12:14:41.040Z,8.40
2018-04-01T12:17:08.463Z,8.50
2018-04-01T12:19:35.964Z,8.50
2018-04-01T12:22:03.389Z,8.70
2018-04-01T12:24:31.616Z,8.80
2018-04-01T12:26:59.108Z,8.80
2018-04-01T12:29:44.146Z,9.20
2018-04-01T12:32:11.696Z,9.30
2018-04-01T12:34:39.124Z,9.10
2018-04-01T12:37:07.350Z,9.20
2018-04-01T12:39:34.908Z,9.10
2018-04-01T12:42:02.464Z,9.80
2018-04-01T12:44:29.892Z,9.70
2018-04-01T12:46:57.350Z,10.10
2018-04-01T12:49:25.738Z,9.90
2018-04-01T12:51:53.187Z,9.90
2018-04-01T12:54:21.422Z,8.90
2018-04-01T12:56:48.895Z,8.90
2018-04-01T12:59:16.381Z,7.30
2018-04-01T13:01:44.579Z,6.00
2018-04-01T13:04:12.081Z,6.00
2018-04-01T13:06:47.959Z,6.00
2018-04-01T13:09:15.428Z,6.10
2018-04-01T13:11:42.883Z,6.30
2018-04-01T13:14:10.372Z,6.40
2018-04-01T13:16:38.513Z,6.50
2018-04-01T13:19:07.045Z,6.70
2018-04-01T13:21:35.417Z,7.30
2018-04-01T13:24:02.884Z,7.30
2018-04-01T13:26:30.569Z,7.60
2018-04-01T13:28:58.042Z,7.90
2018-04-01T13:31:25.566Z,8.20
2018-04-01T13:33:53.016Z,8.40
2018-04-01T13:36:21.089Z,8.30
2018-04-01T13:38:48.560Z,8.40
2018-04-01T13:41:16.009Z,8.30
2018-04-01T13:43:43.521Z,8.50
2018-04-01T13:46:19.018Z,8.60
2018-04-01T13:48:46.519Z,8.80
2018-04-01T13:51:27.429Z,9.00
2018-04-01T13:53:54.985Z,9.20
2018-04-01T13:56:24.267Z,9.30
2018-04-01T13:58:51.729Z,9.20
2018-04-01T14:01:19.188Z,9.10
2018-04-01T14:03:46.738Z,9.10
2018-04-01T14:06:15.157Z,9.20
2018-04-01T14:08:42.618Z,9.20
2018-04-01T14:11:10.118Z,9.10
2018-04-01T14:13:37.527Z,8.90
2018-04-01T14:16:05.169Z,8.90
2018-04-01T14:18:32.646Z,9.10
2018-04-01T14:21:00.137Z,9.10
2018-04-01T14:23:27.644Z,9.00
2018-04-01T14:25:57.515Z,9.00
2018-04-01T14:28:25.728Z,9.20
2018-04-01T14:30:57.369Z,9.10
2018-04-01T14:33:24.832Z,9.00
2018-04-01T14:35:52.300Z,9.10
2018-04-01T14:38:19.715Z,9.40
2018-04-01T14:40:47.231Z,9.50
2018-04-01T14:43:26.040Z,9.40
2018-04-01T14:45:53.496Z,9.50
2018-04-01T14:48:20.929Z,9.60
2018-04-01T14:50:49.178Z,9.80
2018-04-01T14:53:16.641Z,9.70
2018-04-01T14:55:44.085Z,9.60
2018-04-01T14:58:19.223Z,9.40
2018-04-01T15:00:46.888Z,9.50
2018-04-01T15:03:14.354Z,9.60
2018-04-01T15:05:41.795Z,9.60
2018-04-01T15:08:09.543Z,9.70
2018-04-01T15:10:37.017Z,9.60
2018-04-01T15:13:04.482Z,9.60
2018-04-01T15:15:31.930Z,9.50
2018-04-01T15:17:59.397Z,9.60
2018-04-01T15:20:26.887Z,9.60
2018-04-01T15:22:55.102Z,9.70
2018-04-01T15:25:22.568Z,9.70
2018-04-01T15:27:49.997Z,9.80
2018-04-01T15:30:17.433Z,9.80
2018-04-01T15:32:46.888Z,9.80
2018-04-01T15:35:14.309Z,9.90
2018-04-01T15:37:41.846Z,9.80
2018-04-01T15:40:19.816Z,9.70
2018-04-01T15:42:51.511Z,9.30
2018-04-01T15:45:18.936Z,9.30
2018-04-01T15:47:59.448Z,9.20
2018-04-01T15:50:26.923Z,9.10
2018-04-01T15:52:54.313Z,9.20
2018-04-01T15:55:22.625Z,9.00
2018-04-01T15:57:54.768Z,9.00
2018-04-01T16:00:23.292Z,9.00
2018-04-01T16:02:50.778Z,9.10
2018-04-01T16:05:18.256Z,9.20
2018-04-01T16:07:46.478Z,9.10
2018-04-01T16:10:13.938Z,9.10
2018-04-01T16:12:41.447Z,9.10
2018-04-01T16:15:08.850Z,9.00
2018-04-01T16:17:36.318Z,9.10
2018-04-01T16:20:03.764Z,8.90
2018-04-01T16:22:31.441Z,8.90
2018-04-01T16:24:58.921Z,8.80
2018-04-01T16:27:26.168Z,8.80
2018-04-01T16:29:57.520Z,8.70
2018-04-01T16:32:24.959Z,8.60
2018-04-01T16:34:57.530Z,8.60
2018-04-01T16:37:24.990Z,8.60
2018-04-01T16:39:52.441Z,8.60
2018-04-01T16:42:19.889Z,8.50
2018-04-01T16:44:49.304Z,8.60
2018-04-01T16:47:16.780Z,8.60
2018-04-01T16:49:44.224Z,8.60
2018-04-01T16:52:16.997Z,8.60
2018-04-01T16:54:45.271Z,8.50
2018-04-01T16:57:13.552Z,8.50
2018-04-01T16:59:41.057Z,8.50
2018-04-01T17:02:08.752Z,8.40
2018-04-01T17:04:36.234Z,8.40
2018-04-01T17:07:04.461Z,8.30
2018-04-01T17:09:31.916Z,8.30
2018-04-01T17:12:04.307Z,8.30
2018-04-01T17:14:31.766Z,8.20
2018-04-01T17:16:59.221Z,8.10
2018-04-01T17:19:26.500Z,8.10
2018-04-01T17:21:53.998Z,8.10
2018-04-01T17:24:22.228Z,7.90
2018-04-01T17:26:49.707Z,7.90
2018-04-01T17:29:20.501Z,7.90
2018-04-01T17:31:47.920Z,7.90
2018-04-01T17:34:16.171Z,7.70
2018-04-01T17:36:43.615Z,7.70
2018-04-01T17:39:11.097Z,7.70
2018-04-01T17:41:38.549Z,7.70
2018-04-01T17:44:06.009Z,7.70
2018-04-01T17:46:33.486Z,7.60
2018-04-01T17:49:00.963Z,7.60
2018-04-01T17:51:28.470Z,7.60
2018-04-01T17:53:55.939Z,7.70
2018-04-01T17:56:23.506Z,7.60
2018-04-01T17:58:50.935Z,7.60
2018-04-01T18:01:18.431Z,7.60
2018-04-01T18:03:45.936Z,7.60
2018-04-01T18:06:13.352Z,7.50
2018-04-01T18:08:40.812Z,7.50
2018-04-01T18:11:08.331Z,7.40
2018-04-01T18:13:35.792Z,7.40
2018-04-01T18:16:03.271Z,7.40
2018-04-01T18:18:30.709Z,7.40
2018-04-01T18:20:58.175Z,7.30
2018-04-01T18:23:25.617Z,7.30
2018-04-01T18:25:55.193Z,7.30
2018-04-01T18:28:23.374Z,7.30
2018-04-01T18:30:56.747Z,7.30
2018-04-01T18:33:24.257Z,7.20
2018-04-01T18:35:51.686Z,7.10
2018-04-01T18:38:19.156Z,7.10
2018-04-01T18:40:46.610Z,7.10
2018-04-01T18:43:15.230Z,7.00
2018-04-01T18:45:42.684Z,6.90
2018-04-01T18:48:10.147Z,6.90
2018-04-01T18:50:38.400Z,6.90
2018-04-01T18:53:06.599Z,6.90
2018-04-01T18:55:34.853Z,6.80
2018-04-01T18:58:03.099Z,6.70
2018-04-01T19:00:30.573Z,6.70
2018-04-01T19:02:58.009Z,6.60
2018-04-01T19:05:25.476Z,6.60
2018-04-01T19:07:59.600Z,6.60
2018-04-01T19:10:27.098Z,6.60
2018-04-01T19:12:58.694Z,6.50
2018-04-01T19:15:26.155Z,6.50
2018-04-01T19:17:54.857Z,6.50
2018-04-01T19:20:23.506Z,6.50
2018-04-01T19:22:52.129Z,6.50
2018-04-01T19:25:21.764Z,6.50
2018-04-01T19:27:50.432Z,6.60
2018-04-01T19:30:23.550Z,6.60
2018-04-01T19:32:52.249Z,6.60
2018-04-01T19:35:21.661Z,6.50
2018-04-01T19:37:51.066Z,6.60
2018-04-01T19:40:19.790Z,6.50
2018-04-01T19:42:49.374Z,6.60
2018-04-01T19:45:19.210Z,6.60
2018-04-01T19:47:47.840Z,6.60
2018-04-01T19:50:16.671Z,6.70
2018-04-01T19:52:45.790Z,6.70
2018-04-01T19:55:25.766Z,6.70
2018-04-01T19:57:54.380Z,6.60
2018-04-01T20:00:22.975Z,6.60
2018-04-01T20:02:51.620Z,6.50
2018-04-01T20:05:20.269Z,6.40
2018-04-01T20:07:49.881Z,6.50
2018-04-01T20:10:19.264Z,6.50
2018-04-01T20:12:48.653Z,6.40
2018-04-01T20:15:17.268Z,6.40
2018-04-01T20:17:45.921Z,6.40
2018-04-01T20:20:14.632Z,6.40
2018-04-01T20:22:43.305Z,6.40
2018-04-01T20:25:12.145Z,6.40
2018-04-01T20:27:40.918Z,6.40
2018-04-01T20:30:10.342Z,6.30
2018-04-01T20:32:39.033Z,6.30
2018-04-01T20:35:08.063Z,6.30
2018-04-01T20:37:36.784Z,6.30
2018-04-01T20:40:05.690Z,6.30
2018-04-01T20:42:34.540Z,6.30
2018-04-01T20:45:03.360Z,6.30
2018-04-01T20:47:31.995Z,6.30
2018-04-01T20:50:05.575Z,6.30
2018-04-01T20:52:34.427Z,6.30
2018-04-01T20:55:03.039Z,6.30
2018-04-01T20:57:32.510Z,6.30
2018-04-01T21:00:01.241Z,6.20
2018-04-01T21:02:30.675Z,6.30
2018-04-01T21:04:59.342Z,6.30
2018-04-01T21:07:28.156Z,6.30
2018-04-01T21:09:56.818Z,6.30
2018-04-01T21:12:26.240Z,6.30
2018-04-01T21:14:55.908Z,6.30
2018-04-01T21:17:26.281Z,6.30
2018-04-01T21:19:54.953Z,6.30
2018-04-01T21:22:25.713Z,6.30
2018-04-01T21:24:54.461Z,6.30
2018-04-01T21:27:23.310Z,6.30
2018-04-01T21:29:52.115Z,6.30
2018-04-01T21:32:20.602Z,6.30
2018-04-01T21:34:49.330Z,6.30
2018-04-01T21:37:20.933Z,6.30
2018-04-01T21:39:49.566Z,6.30
2018-04-01T21:42:19.083Z,6.30
2018-04-01T21:44:48.459Z,6.30
2018-04-01T21:47:17.139Z,6.30
2018-04-01T21:49:45.965Z,6.30
2018-04-01T21:52:15.850Z,6.30
2018-04-01T21:54:45.435Z,6.30
2018-04-01T21:57:14.241Z,6.30
2018-04-01T21:59:43.027Z,6.30
2018-04-01T22:02:11.676Z,6.40
2018-04-01T22:04:40.306Z,6.30
2018-04-01T22:07:08.950Z,6.30
2018-04-01T22:09:37.565Z,6.30
2018-04-01T22:12:06.349Z,6.30
2018-04-01T22:14:34.945Z,6.40
2018-04-01T22:17:04.565Z,6.30
2018-04-01T22:19:33.199Z,6.30
2018-04-01T22:22:02.587Z,6.30
2018-04-01T22:24:31.408Z,6.30
2018-04-01T22:27:02.232Z,6.30
2018-04-01T22:29:31.753Z,6.30
2018-04-01T22:32:01.931Z,6.30
2018-04-01T22:34:30.580Z,6.20
2018-04-01T22:36:59.184Z,6.20
2018-04-01T22:39:28.027Z,6.20
2018-04-01T22:41:56.628Z,6.30
2018-04-01T22:44:26.045Z,6.20
2018-04-01T22:46:54.767Z,6.20
2018-04-01T22:49:23.405Z,6.20
2018-04-01T22:51:52.840Z,6.20
2018-04-01T22:54:22.200Z,6.20
2018-04-01T22:56:50.614Z,6.20
2018-04-01T22:59:19.260Z,6.20
2018-04-01T23:01:47.869Z,6.20
2018-04-01T23:04:22.068Z,6.20
2018-04-01T23:06:50.776Z,6.20
2018-04-01T23:09:19.360Z,6.20
2018-04-01T23:11:48.783Z,6.20
2018-04-01T23:14:17.387Z,6.20
2018-04-01T23:16:46.163Z,6.20
2018-04-01T23:19:14.763Z,6.20
2018-04-01T23:21:43.390Z,6.20
2018-04-01T23:24:11.984Z,6.20
2018-04-01T23:26:40.648Z,6.10
2018-04-01T23:29:11.438Z,6.10
2018-04-01T23:31:40.815Z,6.10
2018-04-01T23:34:10.510Z,6.10
2018-04-01T23:36:39.133Z,6.10
2018-04-01T23:39:08.526Z,6.10
2018-04-01T23:41:37.319Z,6.10
2018-04-01T23:44:05.929Z,6.10
2018-04-01T23:46:34.577Z,6.10
2018-04-01T23:49:03.165Z,6.10
2018-04-01T23:51:31.811Z,6.10
2018-04-01T23:54:00.522Z,6.10
2018-04-01T23:56:29.327Z,6.10
2018-04-01T23:58:57.760Z,6.10
